createdAt,value
2022-08-17T00:02:26.092Z,16.50
2022-08-17T00:04:55.477Z,16.40
2022-08-17T00:07:23.584Z,16.40
2022-08-17T00:09:50.575Z,16.40
2022-08-17T00:12:41.309Z,16.40
2022-08-17T00:15:08.802Z,16.30
2022-08-17T00:17:38.295Z,16.30
2022-08-17T00:20:06.092Z,16.10
2022-08-17T00:22:36.361Z,16.10
2022-08-17T00:25:07.498Z,16.10
2022-08-17T00:27:35.080Z,16.10
2022-08-17T00:30:03.878Z,16.00
2022-08-17T00:33:13.602Z,16.10
2022-08-17T00:35:29.332Z,16.10
2022-08-17T00:37:56.427Z,16.00
2022-08-17T00:40:24.720Z,16.00
2022-08-17T00:42:52.372Z,16.00
2022-08-17T00:45:20.544Z,15.90
2022-08-17T00:47:49.584Z,15.90
2022-08-17T00:50:19.198Z,15.80
2022-08-17T00:52:53.943Z,15.80
2022-08-17T00:55:22.693Z,15.70
2022-08-17T00:57:55.387Z,15.60
2022-08-17T01:00:27.240Z,15.60
2022-08-17T01:03:06.423Z,15.50
2022-08-17T01:05:38.605Z,15.60
2022-08-17T01:08:13.575Z,15.50
2022-08-17T01:10:59.417Z,15.50
2022-08-17T01:13:39.744Z,15.50
2022-08-17T01:16:28.420Z,15.50
2022-08-17T01:19:02.256Z,15.50
2022-08-17T01:21:46.726Z,15.40
2022-08-17T01:24:13.790Z,15.50
2022-08-17T01:26:43.600Z,15.50
2022-08-17T01:29:10.969Z,15.50
2022-08-17T01:31:43.259Z,15.50
2022-08-17T01:34:12.669Z,15.40
2022-08-17T01:36:43.089Z,15.30
2022-08-17T01:39:23.321Z,15.30
2022-08-17T01:41:54.186Z,15.30
2022-08-17T01:44:23.488Z,15.30
2022-08-17T01:46:51.699Z,15.30
2022-08-17T01:49:19.759Z,15.20
2022-08-17T01:51:48.191Z,15.20
2022-08-17T01:54:18.824Z,15.20
2022-08-17T01:56:49.795Z,15.00
2022-08-17T01:59:19.125Z,15.00
2022-08-17T02:01:47.350Z,15.00
2022-08-17T02:04:15.006Z,14.90
2022-08-17T02:06:52.798Z,14.90
2022-08-17T02:09:25.176Z,14.90
2022-08-17T02:11:57.082Z,14.90
2022-08-17T02:14:24.882Z,14.80
2022-08-17T02:16:53.561Z,14.80
2022-08-17T02:19:21.971Z,14.80
2022-08-17T02:21:51.278Z,14.70
2022-08-17T02:25:00.319Z,14.60
2022-08-17T02:27:10.485Z,14.60
2022-08-17T02:29:38.150Z,14.60
2022-08-17T02:32:05.562Z,14.60
2022-08-17T02:34:32.835Z,14.70
2022-08-17T02:36:59.983Z,14.70
2022-08-17T02:39:27.137Z,14.70
2022-08-17T02:42:02.189Z,14.70
2022-08-17T02:44:38.773Z,14.70
2022-08-17T02:47:08.867Z,14.70
2022-08-17T02:49:36.638Z,14.80
2022-08-17T02:52:06.763Z,14.80
2022-08-17T02:54:40.818Z,14.80
2022-08-17T02:57:09.858Z,14.70
2022-08-17T02:59:37.775Z,14.60
2022-08-17T03:02:07.405Z,14.60
2022-08-17T03:04:35.379Z,14.50
2022-08-17T03:07:03.682Z,14.60
2022-08-17T03:09:30.721Z,14.60
2022-08-17T03:12:06.572Z,14.60
2022-08-17T03:14:41.291Z,14.60
2022-08-17T03:17:10.295Z,14.60
2022-08-17T03:19:42.934Z,14.60
2022-08-17T03:22:35.849Z,14.60
2022-08-17T03:24:58.230Z,14.70
2022-08-17T03:27:25.278Z,14.60
2022-08-17T03:29:52.224Z,14.60
2022-08-17T03:32:20.883Z,14.50
2022-08-17T03:34:48.096Z,14.50
2022-08-17T03:37:16.204Z,14.50
2022-08-17T03:39:43.351Z,14.50
2022-08-17T03:42:31.254Z,14.40
2022-08-17T03:45:00.622Z,14.40
2022-08-17T03:47:46.350Z,14.30
2022-08-17T03:50:33.695Z,14.30
2022-08-17T03:53:22.001Z,14.30
2022-08-17T03:56:07.816Z,14.20
2022-08-17T03:58:37.047Z,14.20
2022-08-17T04:01:06.309Z,14.30
2022-08-17T04:03:33.325Z,14.30
2022-08-17T04:06:02.303Z,14.30
2022-08-17T04:08:30.973Z,14.40
2022-08-17T04:10:58.827Z,14.50
2022-08-17T04:13:25.972Z,14.50
2022-08-17T04:15:53.556Z,14.60
2022-08-17T04:18:20.630Z,14.60
2022-08-17T04:20:47.667Z,14.60
2022-08-17T04:23:18.303Z,14.70
2022-08-17T04:25:49.169Z,14.70
2022-08-17T04:28:17.866Z,14.80
2022-08-17T04:30:46.950Z,14.80
2022-08-17T04:33:20.556Z,14.70
2022-08-17T04:35:51.016Z,14.70
2022-08-17T04:38:24.588Z,14.80
2022-08-17T04:41:11.239Z,14.90
2022-08-17T04:43:40.617Z,14.90
2022-08-17T04:46:19.616Z,15.10
2022-08-17T04:48:49.202Z,15.30
2022-08-17T04:51:19.599Z,15.40
2022-08-17T04:53:54.285Z,15.30
2022-08-17T04:56:22.447Z,15.30
2022-08-17T04:58:54.281Z,15.40
2022-08-17T05:01:24.697Z,15.40
2022-08-17T05:03:56.555Z,15.50
2022-08-17T05:06:24.259Z,15.50
2022-08-17T05:08:51.876Z,15.60
2022-08-17T05:11:18.974Z,15.70
2022-08-17T05:13:46.424Z,15.80
2022-08-17T05:16:13.407Z,15.80
2022-08-17T05:18:40.499Z,15.80
2022-08-17T05:21:07.675Z,15.80
2022-08-17T05:23:42.439Z,15.80
2022-08-17T05:26:25.712Z,15.90
2022-08-17T05:28:56.950Z,16.00
2022-08-17T05:31:25.534Z,15.90
2022-08-17T05:33:53.421Z,15.90
2022-08-17T05:36:42.230Z,15.90
2022-08-17T05:39:07.645Z,16.00
2022-08-17T05:41:34.615Z,16.00
2022-08-17T05:44:05.317Z,15.90
2022-08-17T05:46:40.143Z,16.00
2022-08-17T05:49:08.779Z,16.00
2022-08-17T05:52:04.655Z,16.30
2022-08-17T05:54:39.610Z,18.00
2022-08-17T05:57:12.425Z,21.60
2022-08-17T05:59:48.748Z,24.00
2022-08-17T06:02:36.619Z,26.40
2022-08-17T06:05:28.383Z,28.40
2022-08-17T06:08:23.512Z,30.00
2022-08-17T06:10:56.269Z,31.40
2022-08-17T06:13:38.834Z,32.40
2022-08-17T06:16:33.814Z,33.10
2022-08-17T06:19:16.795Z,33.70
2022-08-17T06:21:47.403Z,34.40
2022-08-17T06:24:36.660Z,34.90
2022-08-17T06:27:18.716Z,35.40
2022-08-17T06:30:00.403Z,35.50
2022-08-17T06:32:28.727Z,35.60
2022-08-17T06:34:55.895Z,35.90
2022-08-17T06:37:33.293Z,35.90
2022-08-17T06:40:37.019Z,36.20
2022-08-17T06:43:44.042Z,35.80
2022-08-17T06:46:25.590Z,35.70
2022-08-17T06:49:02.656Z,35.40
2022-08-17T06:51:50.741Z,36.20
2022-08-17T06:54:33.440Z,36.90
2022-08-17T06:57:25.237Z,37.20
2022-08-17T07:00:17.015Z,37.60
2022-08-17T07:02:52.589Z,37.80
2022-08-17T07:05:23.527Z,37.80
2022-08-17T07:08:12.937Z,37.80
2022-08-17T07:10:46.175Z,38.10
2022-08-17T07:13:49.259Z,38.30
2022-08-17T07:16:30.949Z,38.20
2022-08-17T07:18:59.558Z,38.50
2022-08-17T07:21:39.638Z,38.50
2022-08-17T07:24:29.328Z,38.70
2022-08-17T07:27:30.850Z,37.80
2022-08-17T07:30:10.326Z,37.20
2022-08-17T07:32:57.950Z,37.20
2022-08-17T07:35:40.639Z,37.60
2022-08-17T07:38:25.647Z,38.00
2022-08-17T07:41:02.810Z,38.20
2022-08-17T07:43:42.090Z,38.00
2022-08-17T07:46:30.354Z,37.90
2022-08-17T07:49:08.937Z,37.10
2022-08-17T07:51:43.980Z,35.90
2022-08-17T07:54:22.575Z,35.60
2022-08-17T07:57:09.100Z,35.60
2022-08-17T07:59:38.400Z,35.20
2022-08-17T08:02:31.087Z,35.00
2022-08-17T08:05:30.838Z,34.00
2022-08-17T08:08:30.037Z,33.70
2022-08-17T08:11:03.734Z,33.90
2022-08-17T08:13:32.463Z,33.90
2022-08-17T08:16:27.185Z,33.80
2022-08-17T08:18:58.104Z,33.40
2022-08-17T08:21:33.212Z,33.30
2022-08-17T08:24:17.049Z,33.60
2022-08-17T08:27:00.660Z,33.70
2022-08-17T08:29:48.308Z,33.60
2022-08-17T08:32:37.156Z,33.70
2022-08-17T08:35:13.857Z,33.80
2022-08-17T08:38:07.822Z,34.00
2022-08-17T08:40:46.819Z,34.10
2022-08-17T08:43:37.487Z,34.10
2022-08-17T08:46:04.470Z,34.10
2022-08-17T08:48:56.174Z,34.30
2022-08-17T08:51:55.712Z,34.30
2022-08-17T08:54:39.080Z,34.50
2022-08-17T08:57:35.376Z,34.60
2022-08-17T09:00:19.325Z,34.80
2022-08-17T09:03:04.976Z,34.80
2022-08-17T09:06:32.494Z,34.80
2022-08-17T09:09:27.221Z,34.90
2022-08-17T09:12:08.116Z,34.80
2022-08-17T09:14:46.973Z,34.70
2022-08-17T09:17:35.890Z,34.50
2022-08-17T09:20:36.783Z,34.60
2022-08-17T09:23:20.428Z,34.20
2022-08-17T09:25:55.871Z,33.70
2022-08-17T09:28:39.234Z,33.60
2022-08-17T09:31:16.030Z,33.90
2022-08-17T09:33:47.104Z,34.30
2022-08-17T09:36:29.581Z,34.80
2022-08-17T09:39:09.441Z,34.90
2022-08-17T09:42:07.819Z,34.80
2022-08-17T09:45:09.840Z,33.80
2022-08-17T09:47:50.660Z,33.10
2022-08-17T09:51:03.528Z,33.40
2022-08-17T09:53:11.693Z,33.70
2022-08-17T09:56:06.944Z,33.50
2022-08-17T09:59:03.574Z,33.80
2022-08-17T10:01:44.908Z,34.10
2022-08-17T10:04:21.543Z,34.80
2022-08-17T10:07:04.589Z,35.00
2022-08-17T10:09:34.692Z,35.10
2022-08-17T10:12:30.073Z,34.40
2022-08-17T10:15:07.683Z,33.90
2022-08-17T10:18:08.664Z,33.20
2022-08-17T10:21:20.066Z,32.80
2022-08-17T10:24:11.205Z,33.20
2022-08-17T10:26:56.160Z,33.50
2022-08-17T10:29:48.470Z,33.90
2022-08-17T10:32:28.488Z,34.50
2022-08-17T10:35:04.093Z,34.40
2022-08-17T10:37:40.656Z,33.80
2022-08-17T10:40:16.843Z,33.80
2022-08-17T10:43:10.571Z,34.20
2022-08-17T10:46:10.496Z,34.10
2022-08-17T10:48:42.633Z,33.70
2022-08-17T10:51:13.072Z,33.10
2022-08-17T10:53:43.565Z,32.80
2022-08-17T10:56:13.682Z,32.80
2022-08-17T10:58:55.754Z,32.50
2022-08-17T11:02:00.891Z,32.60
2022-08-17T11:04:51.367Z,32.60
2022-08-17T11:07:31.083Z,32.50
2022-08-17T11:10:31.876Z,32.10
2022-08-17T11:13:11.064Z,32.10
2022-08-17T11:16:01.430Z,31.90
2022-08-17T11:18:53.623Z,31.70
2022-08-17T11:21:52.777Z,31.70
2022-08-17T11:24:24.203Z,31.70
2022-08-17T11:27:23.263Z,31.40
2022-08-17T11:30:03.005Z,31.30
2022-08-17T11:32:30.160Z,31.40
2022-08-17T11:35:35.796Z,31.30
2022-08-17T11:38:35.424Z,31.50
2022-08-17T11:41:28.299Z,31.90
2022-08-17T11:44:08.389Z,32.10
2022-08-17T11:46:54.149Z,32.30
2022-08-17T11:50:00.227Z,32.50
2022-08-17T11:52:38.631Z,33.10
2022-08-17T11:55:33.919Z,33.90
2022-08-17T11:58:03.666Z,34.30
2022-08-17T12:00:46.058Z,35.10
2022-08-17T12:03:23.861Z,35.60
2022-08-17T12:06:02.560Z,35.40
2022-08-17T12:08:32.750Z,35.60
2022-08-17T12:11:55.338Z,35.60
2022-08-17T12:14:32.277Z,35.30
2022-08-17T12:17:14.245Z,34.60
2022-08-17T12:20:40.111Z,34.20
2022-08-17T12:23:20.744Z,33.70
2022-08-17T12:26:15.313Z,33.30
2022-08-17T12:28:47.622Z,32.60
2022-08-17T12:31:23.357Z,32.10
2022-08-17T12:33:51.954Z,31.80
2022-08-17T12:36:24.958Z,31.60
2022-08-17T12:39:13.066Z,31.50
2022-08-17T12:41:48.203Z,31.30
2022-08-17T12:44:21.488Z,31.10
2022-08-17T12:47:01.935Z,31.00
2022-08-17T12:49:41.043Z,30.90
2022-08-17T12:52:17.161Z,30.90
2022-08-17T12:55:27.979Z,30.80
2022-08-17T12:58:02.287Z,30.70
2022-08-17T13:00:34.151Z,31.10
2022-08-17T13:03:06.071Z,32.10
2022-08-17T13:05:54.756Z,32.90
2022-08-17T13:08:38.022Z,33.20
2022-08-17T13:11:18.442Z,33.00
2022-08-17T13:13:56.529Z,32.80
2022-08-17T13:16:26.870Z,32.60
2022-08-17T13:19:12.916Z,32.70
2022-08-17T13:21:48.664Z,33.00
2022-08-17T13:24:23.960Z,33.10
2022-08-17T13:27:09.797Z,33.10
2022-08-17T13:29:53.881Z,33.00
2022-08-17T13:32:36.234Z,33.00
2022-08-17T13:35:33.006Z,32.90
2022-08-17T13:38:10.548Z,32.80
2022-08-17T13:40:41.969Z,32.90
2022-08-17T13:43:10.165Z,33.10
2022-08-17T13:45:46.206Z,32.90
2022-08-17T13:48:28.273Z,32.90
2022-08-17T13:50:55.247Z,32.80
2022-08-17T13:53:32.994Z,32.80
2022-08-17T13:56:38.849Z,32.80
2022-08-17T13:59:00.334Z,32.90
2022-08-17T14:01:47.439Z,32.80
2022-08-17T14:04:28.107Z,32.70
2022-08-17T14:07:24.532Z,32.70
2022-08-17T14:10:17.835Z,32.70
2022-08-17T14:12:46.196Z,32.60
2022-08-17T14:15:16.472Z,32.80
2022-08-17T14:17:43.513Z,32.90
2022-08-17T14:20:13.595Z,32.80
2022-08-17T14:22:46.406Z,32.50
2022-08-17T14:25:17.661Z,32.20
2022-08-17T14:27:53.635Z,31.90
2022-08-17T14:30:24.226Z,31.50
2022-08-17T14:32:52.381Z,31.10
2022-08-17T14:35:22.371Z,30.90
2022-08-17T14:37:50.562Z,30.80
2022-08-17T14:40:20.965Z,30.80
2022-08-17T14:42:48.311Z,31.00
2022-08-17T14:45:29.894Z,31.30
2022-08-17T14:48:04.546Z,31.60
2022-08-17T14:50:32.161Z,31.60
2022-08-17T14:53:04.689Z,31.60
2022-08-17T14:55:32.713Z,31.60
2022-08-17T14:57:59.875Z,31.70
2022-08-17T15:00:27.058Z,31.70
2022-08-17T15:02:56.795Z,31.70
2022-08-17T15:05:26.673Z,31.60
2022-08-17T15:07:53.990Z,31.40
2022-08-17T15:10:21.502Z,31.30
2022-08-17T15:12:49.275Z,31.00
2022-08-17T15:15:17.637Z,30.70
2022-08-17T15:17:45.912Z,30.50
2022-08-17T15:20:15.942Z,30.30
2022-08-17T15:22:44.354Z,30.30
2022-08-17T15:25:12.320Z,30.30
2022-08-17T15:27:40.521Z,30.30
2022-08-17T15:30:08.885Z,30.40
2022-08-17T15:32:38.752Z,30.30
2022-08-17T15:35:08.951Z,30.20
2022-08-17T15:37:38.750Z,30.10
2022-08-17T15:40:07.956Z,30.10
2022-08-17T15:42:35.863Z,30.10
2022-08-17T15:45:11.686Z,30.00
2022-08-17T15:47:38.973Z,30.00
2022-08-17T15:50:07.354Z,30.00
2022-08-17T15:52:40.564Z,30.00
2022-08-17T15:55:12.669Z,30.00
2022-08-17T15:57:39.957Z,30.10
2022-08-17T16:00:09.542Z,30.20
2022-08-17T16:03:20.307Z,30.30
2022-08-17T16:05:28.680Z,30.40
2022-08-17T16:07:59.919Z,30.60
2022-08-17T16:10:35.212Z,30.60
2022-08-17T16:13:04.620Z,30.50
2022-08-17T16:15:32.252Z,30.40
2022-08-17T16:17:59.451Z,30.30
2022-08-17T16:20:27.172Z,30.10
2022-08-17T16:22:55.153Z,30.00
2022-08-17T16:25:38.438Z,29.80
2022-08-17T16:28:15.975Z,29.70
2022-08-17T16:30:43.111Z,29.60
2022-08-17T16:33:11.759Z,29.50
2022-08-17T16:35:39.556Z,29.50
2022-08-17T16:38:07.101Z,29.50
2022-08-17T16:40:36.175Z,29.50
2022-08-17T16:43:03.988Z,29.50
2022-08-17T16:45:36.851Z,29.40
2022-08-17T16:48:04.548Z,29.40
2022-08-17T16:50:32.520Z,29.30
2022-08-17T16:53:07.786Z,29.20
2022-08-17T16:55:35.889Z,29.10
2022-08-17T16:58:06.886Z,29.00
2022-08-17T17:00:34.325Z,28.90
2022-08-17T17:03:19.768Z,28.80
2022-08-17T17:06:18.605Z,28.80
2022-08-17T17:09:05.667Z,28.60
2022-08-17T17:11:40.491Z,28.50
2022-08-17T17:14:20.508Z,28.40
2022-08-17T17:17:05.522Z,28.30
2022-08-17T17:19:41.389Z,28.20
2022-08-17T17:22:38.839Z,28.10
2022-08-17T17:25:50.541Z,28.00
2022-08-17T17:28:51.083Z,27.90
2022-08-17T17:31:23.895Z,27.90
2022-08-17T17:33:56.461Z,27.80
2022-08-17T17:36:46.084Z,27.70
2022-08-17T17:39:17.991Z,27.60
2022-08-17T17:42:07.832Z,27.40
2022-08-17T17:44:39.608Z,27.30
2022-08-17T17:47:06.860Z,27.20
2022-08-17T17:49:44.044Z,27.10
2022-08-17T17:52:36.461Z,27.10
2022-08-17T17:55:24.392Z,27.00
2022-08-17T17:58:36.434Z,26.80
2022-08-17T18:01:24.356Z,26.80
2022-08-17T18:04:20.271Z,26.70
2022-08-17T18:07:10.091Z,26.50
2022-08-17T18:10:01.354Z,26.40
2022-08-17T18:12:54.310Z,26.30
2022-08-17T18:15:35.778Z,26.20
2022-08-17T18:18:14.564Z,26.00
2022-08-17T18:20:53.491Z,25.90
2022-08-17T18:23:28.118Z,25.80
2022-08-17T18:25:56.427Z,25.50
2022-08-17T18:28:44.059Z,25.40
2022-08-17T18:31:21.836Z,25.30
2022-08-17T18:33:54.380Z,25.20
2022-08-17T18:36:29.258Z,25.00
2022-08-17T18:39:27.608Z,24.90
2022-08-17T18:41:57.836Z,24.90
2022-08-17T18:44:32.746Z,24.80
2022-08-17T18:47:27.193Z,24.70
2022-08-17T18:49:58.783Z,24.70
2022-08-17T18:52:33.066Z,24.60
2022-08-17T18:55:20.093Z,24.60
2022-08-17T18:57:52.610Z,24.40
2022-08-17T19:00:40.411Z,24.40
2022-08-17T19:03:16.816Z,24.30
2022-08-17T19:05:48.918Z,24.20
2022-08-17T19:08:21.108Z,24.10
2022-08-17T19:10:52.873Z,24.00
2022-08-17T19:13:29.392Z,24.00
2022-08-17T19:16:18.190Z,23.90
2022-08-17T19:19:09.844Z,23.90
2022-08-17T19:21:47.269Z,23.80
2022-08-17T19:24:20.974Z,23.70
2022-08-17T19:26:56.682Z,23.60
2022-08-17T19:29:34.271Z,23.60
2022-08-17T19:32:01.798Z,23.50
2022-08-17T19:34:34.708Z,23.50
2022-08-17T19:37:09.805Z,23.40
2022-08-17T19:39:43.062Z,23.40
2022-08-17T19:42:17.289Z,23.30
2022-08-17T19:45:16.681Z,23.30
2022-08-17T19:47:55.917Z,23.20
2022-08-17T19:50:53.239Z,23.20
2022-08-17T19:54:04.840Z,23.10
2022-08-17T19:56:55.648Z,23.00
2022-08-17T19:59:35.772Z,22.90
2022-08-17T20:02:47.324Z,22.90
2022-08-17T20:05:20.714Z,22.90
2022-08-17T20:08:01.713Z,22.80
2022-08-17T20:10:48.070Z,22.70
2022-08-17T20:13:41.861Z,22.60
2022-08-17T20:16:09.976Z,22.50
2022-08-17T20:19:04.948Z,22.30
2022-08-17T20:21:41.600Z,22.30
2022-08-17T20:24:20.419Z,22.20
2022-08-17T20:27:13.909Z,22.10
2022-08-17T20:30:13.055Z,22.10
2022-08-17T20:32:49.060Z,22.10
2022-08-17T20:35:27.006Z,22.10
2022-08-17T20:38:04.423Z,22.00
2022-08-17T20:40:54.740Z,21.90
2022-08-17T20:43:35.407Z,21.90
2022-08-17T20:46:23.620Z,21.90
2022-08-17T20:48:56.996Z,21.80
2022-08-17T20:52:00.833Z,21.80
2022-08-17T20:54:40.650Z,21.80
2022-08-17T20:57:13.666Z,21.90
2022-08-17T20:59:45.043Z,21.90
2022-08-17T21:02:20.213Z,22.00
2022-08-17T21:04:54.554Z,22.00
2022-08-17T21:07:43.505Z,22.00
2022-08-17T21:10:26.077Z,21.90
2022-08-17T21:13:13.550Z,21.90
2022-08-17T21:15:42.210Z,21.90
2022-08-17T21:18:18.499Z,21.90
2022-08-17T21:21:03.930Z,21.90
2022-08-17T21:23:58.929Z,21.90
2022-08-17T21:26:50.735Z,22.00
2022-08-17T21:29:31.705Z,22.00
2022-08-17T21:31:59.707Z,22.00
2022-08-17T21:34:42.614Z,22.00
2022-08-17T21:37:26.345Z,22.00
2022-08-17T21:39:57.302Z,21.90
2022-08-17T21:42:32.279Z,21.90
2022-08-17T21:45:18.056Z,22.00
2022-08-17T21:47:49.972Z,22.00
2022-08-17T21:50:24.155Z,22.00
2022-08-17T21:52:54.592Z,22.00
2022-08-17T21:55:31.101Z,22.10
2022-08-17T21:58:13.819Z,22.10
2022-08-17T22:00:44.757Z,22.10
2022-08-17T22:03:24.085Z,22.10
2022-08-17T22:05:51.695Z,22.10
2022-08-17T22:08:24.463Z,22.10
2022-08-17T22:11:01.368Z,22.10
2022-08-17T22:13:29.817Z,22.10
2022-08-17T22:16:15.653Z,22.10
2022-08-17T22:18:58.263Z,22.10
2022-08-17T22:21:26.287Z,22.00
2022-08-17T22:24:20.448Z,22.00
2022-08-17T22:27:02.282Z,21.90
2022-08-17T22:29:46.362Z,21.90
2022-08-17T22:32:41.524Z,21.90
2022-08-17T22:35:43.715Z,22.00
2022-08-17T22:38:20.165Z,22.00
2022-08-17T22:40:50.039Z,21.90
2022-08-17T22:43:26.192Z,21.90
2022-08-17T22:45:57.448Z,22.00
2022-08-17T22:48:28.009Z,22.00
2022-08-17T22:51:31.099Z,22.20
2022-08-17T22:54:20.668Z,22.20
2022-08-17T22:57:19.121Z,22.40
2022-08-17T22:59:55.539Z,22.50
2022-08-17T23:02:26.054Z,22.60
2022-08-17T23:05:16.883Z,22.70
2022-08-17T23:07:46.393Z,22.80
2022-08-17T23:10:14.740Z,22.90
2022-08-17T23:12:42.177Z,22.90
2022-08-17T23:15:14.840Z,23.00
2022-08-17T23:17:42.162Z,23.00
2022-08-17T23:20:15.160Z,22.90
2022-08-17T23:22:51.328Z,22.80
2022-08-17T23:25:28.913Z,22.60
2022-08-17T23:27:57.712Z,22.50
2022-08-17T23:30:25.768Z,22.20
2022-08-17T23:32:54.426Z,22.10
2022-08-17T23:35:39.845Z,21.90
2022-08-17T23:38:10.788Z,21.70
2022-08-17T23:40:39.763Z,21.60
2022-08-17T23:43:23.491Z,21.50
2022-08-17T23:45:54.643Z,21.40
2022-08-17T23:48:35.227Z,21.20
2022-08-17T23:51:24.486Z,21.00
2022-08-17T23:53:58.303Z,20.80
2022-08-17T23:56:27.998Z,20.60
2022-08-17T23:58:56.116Z,20.50
